Chana, Illinois
Current Conditions -  °F | °C
As of 10:35 AM on Monday 24 Nov 2014 (Local Time) from KRPJ Reporting Station
Moderate Snow Moderate Snow  
Wind Chill: 16°   Ceiling: 700
Heat Index: 30°   Visibility: 0.5mi
Dew Point: 29°   Wind: 24mph
Humidity: 97%   Direction: 260°W
Pressure: 29.31"   Gusts: 31mph
Location:  41.98°N, 89.22°W
Report Text: KRPJ 241635Z AUTO 26021G27KT 1/2SM SN OVC007 M01/M01 A2931 RMK AO2 T10111015
Loading
Personal Weather Stations






























Interactive Weather Map New forecast layout! Learn more

10-Day Weather Forecast

Advertisements
Track Severe Weather on mobile